Time;durP1;ratioP1;P1;durP2;ratioP2;P2;SDS_P1;SDS_P2;PMS_P1;PMS_P2;Temp;Humidity;BMP_temperature;BMP_pressure;BME280_temperature;BME280_humidity;BME280_pressure;Samples;Min_cycle;Max_cycle;Signal;HPM_P1;HPM_P2
2023/06/10 00:00:24;;;;;;;13.00;7.95;;;15.00;99.90;;;;;;5092825;28;20040;-76
2023/06/10 00:02:50;;;;;;;13.63;7.65;;;15.00;99.90;;;;;;5092649;28;20040;-76
2023/06/10 00:05:16;;;;;;;14.30;7.30;;;15.00;99.90;;;;;;5093854;28;20032;-76
2023/06/10 00:07:42;;;;;;;12.98;7.50;;;14.90;99.90;;;;;;5092759;28;20056;-76
2023/06/10 00:10:08;;;;;;;12.13;7.47;;;14.90;99.90;;;;;;5093729;28;20044;-76
2023/06/10 00:12:36;;;;;;;12.73;7.32;;;15.00;99.90;;;;;;5093620;28;20040;-76
2023/06/10 00:15:06;;;;;;;11.73;7.43;;;14.90;99.90;;;;;;5092568;28;20062;-75
2023/06/10 00:17:32;;;;;;;15.43;7.10;;;14.90;99.90;;;;;;5093581;28;20585;-75
2023/06/10 00:19:58;;;;;;;14.00;7.20;;;14.90;99.90;;;;;;5093682;28;20055;-79
2023/06/10 00:22:29;;;;;;;11.90;8.07;;;14.80;99.90;;;;;;5093340;28;20431;-75
2023/06/10 00:24:56;;;;;;;12.25;7.50;;;14.80;99.90;;;;;;5092588;28;20094;-75
2023/06/10 00:27:22;;;;;;;10.93;7.20;;;14.80;99.90;;;;;;5093457;28;20052;-75
2023/06/10 00:29:48;;;;;;;12.57;7.15;;;14.80;99.90;;;;;;5093413;28;20071;-75
2023/06/10 00:32:13;;;;;;;10.95;7.25;;;14.80;99.90;;;;;;5093362;28;20502;-75
2023/06/10 00:34:39;;;;;;;12.18;6.95;;;14.70;99.90;;;;;;5092287;28;20048;-75
2023/06/10 00:37:05;;;;;;;12.80;6.72;;;14.70;99.90;;;;;;5092561;28;20036;-75
2023/06/10 00:39:30;;;;;;;12.00;7.15;;;14.70;99.90;;;;;;5092492;28;20101;-75
2023/06/10 00:41:56;;;;;;;12.82;7.30;;;14.70;99.90;;;;;;5093507;28;20036;-75
2023/06/10 00:44:22;;;;;;;13.27;6.43;;;14.70;99.90;;;;;;5093396;28;20048;-75
2023/06/10 00:46:49;;;;;;;13.90;6.95;;;14.60;99.90;;;;;;5093333;28;20097;-75
2023/06/10 00:49:16;;;;;;;11.25;6.82;;;14.60;99.90;;;;;;5092082;28;20040;-75
2023/06/10 00:51:42;;;;;;;13.50;6.93;;;14.60;99.90;;;;;;5093410;28;20149;-75
2023/06/10 00:54:08;;;;;;;13.40;6.97;;;14.60;99.90;;;;;;5093229;28;20107;-75
2023/06/10 00:56:35;;;;;;;11.55;6.40;;;14.60;99.90;;;;;;5096471;28;20079;-75
2023/06/10 00:59:00;;;;;;;14.32;7.75;;;14.60;99.90;;;;;;5097299;28;20047;-75
2023/06/10 01:01:26;;;;;;;14.50;7.00;;;14.60;99.90;;;;;;5096026;28;20052;-75
2023/06/10 01:03:52;;;;;;;11.30;7.13;;;14.50;99.90;;;;;;5097067;28;20391;-75
2023/06/10 01:06:24;;;;;;;11.15;7.10;;;14.50;99.90;;;;;;5095886;28;20040;-75
2023/06/10 01:09:13;;;;;;;12.57;6.85;;;14.50;99.90;;;;;;5095823;28;20067;-75
2023/06/10 01:11:47;;;;;;;10.20;6.63;;;14.50;99.90;;;;;;5095673;28;20127;-75
2023/06/10 01:14:14;;;;;;;12.95;6.93;;;14.50;99.90;;;;;;5095614;28;20048;-75
2023/06/10 01:16:40;;;;;;;11.48;7.00;;;14.50;99.90;;;;;;5096710;28;20052;-76
2023/06/10 01:19:07;;;;;;;10.60;7.00;;;14.50;99.90;;;;;;5096808;28;20534;-76
2023/06/10 01:21:33;;;;;;;12.07;7.20;;;14.40;99.90;;;;;;5096826;28;20098;-76
2023/06/10 01:24:00;;;;;;;10.73;6.70;;;14.50;99.90;;;;;;5096524;28;20483;-75
2023/06/10 01:26:32;;;;;;;12.63;7.18;;;14.50;99.90;;;;;;5095379;28;20052;-75
2023/06/10 01:29:04;;;;;;;15.10;8.63;;;14.40;99.90;;;;;;5095340;28;20039;-75
2023/06/10 01:31:45;;;;;;;12.68;7.10;;;14.40;99.90;;;;;;5095492;28;20055;-75
2023/06/10 01:34:14;;;;;;;9.52;6.75;;;14.40;99.90;;;;;;5095155;28;20048;-78
2023/06/10 01:36:42;;;;;;;11.63;6.82;;;14.50;99.90;;;;;;5095154;28;20101;-75
2023/06/10 01:39:11;;;;;;;11.48;7.20;;;14.40;99.90;;;;;;5095452;28;20093;-75
2023/06/10 01:41:37;;;;;;;10.90;6.78;;;14.40;99.90;;;;;;5096431;28;20364;-75
2023/06/10 01:44:03;;;;;;;12.82;6.88;;;14.40;99.90;;;;;;5096404;28;20111;-75
2023/06/10 01:46:29;;;;;;;11.05;6.65;;;14.40;99.90;;;;;;5094924;28;20098;-75
2023/06/10 01:48:55;;;;;;;12.18;6.38;;;14.40;99.90;;;;;;5094898;28;20040;-75
2023/06/10 01:51:21;;;;;;;11.43;5.95;;;14.40;99.90;;;;;;5096125;28;20483;-75
2023/06/10 01:53:47;;;;;;;11.57;6.32;;;14.40;99.90;;;;;;5096205;28;20044;-75
2023/06/10 01:56:17;;;;;;;9.93;6.38;;;14.40;99.90;;;;;;5095259;28;20044;-75
2023/06/10 01:58:43;;;;;;;8.95;5.55;;;14.40;99.90;;;;;;5096073;28;20044;-75
2023/06/10 02:01:09;;;;;;;8.23;5.88;;;14.40;99.90;;;;;;5096137;28;20040;-75
2023/06/10 02:03:35;;;;;;;11.77;5.93;;;14.40;99.90;;;;;;5094887;28;20143;-75
2023/06/10 02:06:00;;;;;;;12.57;6.40;;;14.30;99.90;;;;;;5095674;28;20120;-75
2023/06/10 02:08:27;;;;;;;11.65;6.00;;;14.30;99.90;;;;;;5095854;28;20052;-75
2023/06/10 02:10:53;;;;;;;11.48;6.35;;;14.30;99.90;;;;;;5094600;28;20130;-75
2023/06/10 02:13:19;;;;;;;10.23;6.78;;;14.20;99.90;;;;;;5095746;28;20123;-75
2023/06/10 02:15:44;;;;;;;12.57;6.95;;;14.20;99.90;;;;;;5094352;28;20048;-75
2023/06/10 02:18:11;;;;;;;16.33;6.68;;;14.10;99.90;;;;;;5095795;28;20069;-75
2023/06/10 02:20:37;;;;;;;14.15;7.47;;;14.10;99.90;;;;;;5094363;28;20044;-75
2023/06/10 02:23:05;;;;;;;12.30;7.40;;;14.10;99.90;;;;;;5095342;28;20126;-75
2023/06/10 02:25:31;;;;;;;13.55;7.65;;;14.00;99.90;;;;;;5095385;28;20079;-75
2023/06/10 02:27:57;;;;;;;11.38;7.78;;;14.00;99.90;;;;;;5095362;28;20089;-75
2023/06/10 02:30:22;;;;;;;13.52;7.95;;;14.00;99.90;;;;;;5095560;28;20044;-75
2023/06/10 02:32:50;;;;;;;12.65;7.75;;;14.00;99.90;;;;;;5095410;28;20044;-75
2023/06/10 02:35:17;;;;;;;13.90;7.93;;;14.00;99.90;;;;;;5095303;28;20123;-75
2023/06/10 02:37:43;;;;;;;13.20;6.82;;;13.90;99.90;;;;;;5094378;28;20048;-75
2023/06/10 02:40:10;;;;;;;11.38;7.43;;;13.90;99.90;;;;;;5093830;28;20498;-75
2023/06/10 02:42:36;;;;;;;12.20;7.10;;;14.00;99.90;;;;;;5095206;28;20127;-75
2023/06/10 02:45:02;;;;;;;11.18;7.05;;;13.90;99.90;;;;;;5093788;28;20131;-75
2023/06/10 02:47:27;;;;;;;11.70;7.38;;;14.00;99.90;;;;;;5093992;28;20055;-75
2023/06/10 02:49:53;;;;;;;11.30;7.68;;;14.00;99.90;;;;;;5095154;28;20045;-75
2023/06/10 02:52:18;;;;;;;12.68;7.85;;;14.00;99.90;;;;;;5094217;28;20044;-75
2023/06/10 02:54:45;;;;;;;13.85;8.60;;;13.90;99.90;;;;;;5095002;28;20455;-75
2023/06/10 02:57:11;;;;;;;14.95;8.73;;;13.90;99.90;;;;;;5093612;28;20402;-75
2023/06/10 02:59:36;;;;;;;17.30;7.75;;;13.90;99.90;;;;;;5093359;28;20044;-75
2023/06/10 03:02:02;;;;;;;15.18;9.10;;;13.90;99.90;;;;;;5093080;28;20071;-75
2023/06/10 03:04:28;;;;;;;14.52;8.38;;;14.00;99.90;;;;;;5092364;28;20063;-75
2023/06/10 03:06:54;;;;;;;13.75;8.63;;;13.90;99.90;;;;;;5092443;28;20043;-75
2023/06/10 03:09:20;;;;;;;15.43;8.30;;;13.90;99.90;;;;;;5093418;28;20092;-75
2023/06/10 03:11:46;;;;;;;12.48;8.43;;;13.90;99.90;;;;;;5093251;28;20044;-75
2023/06/10 03:14:11;;;;;;;15.02;8.18;;;13.90;99.90;;;;;;5093226;28;20097;-75
2023/06/10 03:16:40;;;;;;;14.32;8.40;;;13.90;99.90;;;;;;5094630;28;20058;-75
2023/06/10 03:19:07;;;;;;;17.48;8.40;;;13.90;99.90;;;;;;5093610;28;20048;-75
2023/06/10 03:21:37;;;;;;;12.07;8.10;;;13.90;99.90;;;;;;5094342;28;20110;-75
2023/06/10 03:24:05;;;;;;;17.08;8.00;;;13.90;99.90;;;;;;5093978;28;20056;-75
2023/06/10 03:26:30;;;;;;;15.23;8.25;;;13.80;99.90;;;;;;5092829;28;20056;-75
2023/06/10 03:28:56;;;;;;;14.30;8.63;;;13.80;99.90;;;;;;5092853;28;20046;-75
2023/06/10 03:31:22;;;;;;;16.77;8.95;;;13.80;99.90;;;;;;5094208;28;20048;-75
2023/06/10 03:33:47;;;;;;;15.88;8.43;;;13.80;99.90;;;;;;5092713;28;20067;-75
2023/06/10 03:36:13;;;;;;;14.23;8.77;;;13.80;99.90;;;;;;5094042;28;20075;-75
2023/06/10 03:38:38;;;;;;;16.35;9.45;;;13.80;99.90;;;;;;5092676;28;20473;-75
2023/06/10 03:41:04;;;;;;;20.58;9.57;;;13.80;99.90;;;;;;5092676;28;20043;-75
2023/06/10 03:43:31;;;;;;;17.65;8.13;;;13.80;99.90;;;;;;5094055;28;20054;-75
2023/06/10 03:45:56;;;;;;;14.82;8.00;;;13.70;99.90;;;;;;5092864;28;20471;-75
2023/06/10 03:48:22;;;;;;;14.68;8.98;;;13.70;99.90;;;;;;5093835;28;20105;-75
2023/06/10 03:50:50;;;;;;;15.98;8.38;;;13.80;99.90;;;;;;5093837;28;20048;-75
2023/06/10 03:53:16;;;;;;;20.80;8.57;;;13.70;99.90;;;;;;5093893;28;20048;-75
2023/06/10 03:55:42;;;;;;;18.63;8.00;;;13.80;99.90;;;;;;5093705;28;20063;-75
2023/06/10 03:58:08;;;;;;;13.45;7.93;;;13.80;99.90;;;;;;5093960;28;20040;-75
2023/06/10 04:00:41;;;;;;;17.63;8.52;;;13.80;99.90;;;;;;5092613;28;20080;-75
2023/06/10 04:03:08;;;;;;;15.13;8.48;;;13.80;99.90;;;;;;5093883;28;20038;-75
2023/06/10 04:05:34;;;;;;;13.85;8.32;;;13.80;99.90;;;;;;5093586;28;20052;-75
2023/06/10 04:08:01;;;;;;;13.07;8.73;;;13.90;99.90;;;;;;5093754;28;20036;-75
2023/06/10 04:10:27;;;;;;;14.73;7.53;;;14.00;99.90;;;;;;5092194;28;20056;-75
2023/06/10 04:12:52;;;;;;;14.45;8.00;;;14.10;99.90;;;;;;5092362;28;20137;-75
2023/06/10 04:15:18;;;;;;;16.20;8.18;;;14.20;99.90;;;;;;5093622;28;20391;-75
2023/06/10 04:17:43;;;;;;;15.75;7.88;;;14.30;99.90;;;;;;5092542;28;20081;-75
2023/06/10 04:20:09;;;;;;;14.68;8.18;;;14.40;99.90;;;;;;5093675;28;20058;-75
2023/06/10 04:22:36;;;;;;;18.95;8.45;;;14.50;99.90;;;;;;5093331;28;20060;-75
2023/06/10 04:25:02;;;;;;;12.75;7.93;;;14.50;99.90;;;;;;5092278;28;20101;-75
2023/06/10 04:27:29;;;;;;;16.27;8.13;;;14.50;99.90;;;;;;5092075;28;20048;-75
2023/06/10 04:29:54;;;;;;;16.17;7.63;;;14.60;99.90;;;;;;5094709;28;20052;-74
2023/06/10 04:32:21;;;;;;;15.90;8.70;;;14.50;99.90;;;;;;5097803;28;20481;-75
2023/06/10 04:34:46;;;;;;;14.68;8.65;;;14.60;99.90;;;;;;5097492;28;20507;-75
2023/06/10 04:37:12;;;;;;;15.10;7.45;;;14.70;99.90;;;;;;5097446;28;20167;-75
2023/06/10 04:39:38;;;;;;;13.13;7.60;;;14.80;99.90;;;;;;5097651;28;20054;-76
2023/06/10 04:42:05;;;;;;;13.43;7.45;;;14.90;99.90;;;;;;5096628;28;20135;-75
2023/06/10 04:44:31;;;;;;;13.98;7.93;;;14.90;99.90;;;;;;5097423;28;20428;-75
2023/06/10 04:46:56;;;;;;;15.65;7.72;;;14.80;99.90;;;;;;5095951;28;20550;-75
2023/06/10 04:49:22;;;;;;;13.57;8.15;;;14.90;99.90;;;;;;5097515;28;20040;-75
2023/06/10 04:51:47;;;;;;;14.90;7.60;;;15.00;99.90;;;;;;5096115;28;20044;-75
2023/06/10 04:54:13;;;;;;;12.15;7.70;;;15.20;99.90;;;;;;5097324;28;20502;-76
2023/06/10 04:56:39;;;;;;;14.40;7.65;;;15.10;99.90;;;;;;5095789;28;20040;-75
2023/06/10 04:59:05;;;;;;;15.50;8.00;;;15.20;99.90;;;;;;5095865;28;20044;-74
2023/06/10 05:01:30;;;;;;;13.68;7.78;;;15.20;99.90;;;;;;5097052;28;20055;-75
2023/06/10 05:03:56;;;;;;;15.27;8.07;;;15.20;99.90;;;;;;5095803;28;20526;-75
2023/06/10 05:06:22;;;;;;;12.55;7.55;;;15.30;99.90;;;;;;5096865;28;20078;-75
2023/06/10 05:08:47;;;;;;;18.90;8.50;;;15.40;99.90;;;;;;5095590;28;20044;-75
2023/06/10 05:11:13;;;;;;;14.20;7.57;;;15.40;99.90;;;;;;5095792;28;20044;-75
2023/06/10 05:13:40;;;;;;;13.85;7.68;;;15.50;99.90;;;;;;5095440;28;20048;-75
2023/06/10 05:16:06;;;;;;;10.68;7.25;;;15.40;99.90;;;;;;5096818;28;20491;-75
2023/06/10 05:18:32;;;;;;;15.40;7.40;;;15.40;99.90;;;;;;5096962;28;20040;-75
2023/06/10 05:20:57;;;;;;;13.98;8.00;;;15.50;99.90;;;;;;5096629;28;20048;-75
2023/06/10 05:23:25;;;;;;;14.68;7.85;;;15.70;99.90;;;;;;5096499;28;20116;-75
2023/06/10 05:25:50;;;;;;;11.98;7.40;;;15.80;99.90;;;;;;5095277;28;20059;-75
2023/06/10 05:28:16;;;;;;;12.90;6.97;;;16.00;99.90;;;;;;5096880;28;20074;-75
2023/06/10 05:30:41;;;;;;;12.07;6.85;;;16.10;99.90;;;;;;5096475;28;20101;-75
2023/06/10 05:33:07;;;;;;;13.70;7.43;;;16.20;99.90;;;;;;5096184;28;20051;-75
2023/06/10 05:35:33;;;;;;;12.35;7.15;;;16.20;99.90;;;;;;5096416;28;20517;-76
2023/06/10 05:37:58;;;;;;;12.50;7.47;;;16.10;99.90;;;;;;5095062;28;20073;-76
2023/06/10 05:40:24;;;;;;;12.20;6.82;;;16.20;99.90;;;;;;5094833;28;20097;-76
2023/06/10 05:42:50;;;;;;;14.18;7.28;;;16.30;99.90;;;;;;5095018;28;20044;-75
2023/06/10 05:45:15;;;;;;;13.30;7.05;;;16.60;99.90;;;;;;5096452;28;20491;-75
2023/06/10 05:47:41;;;;;;;13.80;6.80;;;16.70;99.90;;;;;;5095087;28;20040;-75
2023/06/10 05:50:08;;;;;;;12.98;6.72;;;16.70;99.90;;;;;;5096385;28;20059;-74
2023/06/10 05:52:34;;;;;;;12.38;6.38;;;16.70;99.90;;;;;;5094982;28;20048;-75
2023/06/10 05:55:00;;;;;;;13.23;7.82;;;16.70;99.90;;;;;;5096001;28;20059;-74
2023/06/10 05:57:26;;;;;;;11.32;6.63;;;16.80;99.90;;;;;;5095900;28;20040;-75
2023/06/10 05:59:52;;;;;;;12.95;6.22;;;16.80;99.90;;;;;;5096023;28;20063;-75
2023/06/10 06:02:17;;;;;;;15.00;6.70;;;17.10;99.90;;;;;;5095938;28;20044;-75
2023/06/10 06:04:43;;;;;;;14.25;6.40;;;17.30;99.90;;;;;;5095720;28;20054;-75
2023/06/10 06:07:09;;;;;;;12.13;6.38;;;17.40;99.90;;;;;;5095769;28;20131;-75
2023/06/10 06:09:35;;;;;;;10.70;5.80;;;17.60;99.90;;;;;;5094477;28;20127;-75
2023/06/10 06:12:01;;;;;;;13.25;5.95;;;17.70;99.90;;;;;;5095895;28;20123;-75
2023/06/10 06:14:26;;;;;;;9.82;6.07;;;17.80;99.90;;;;;;5094380;28;20047;-75
2023/06/10 06:16:52;;;;;;;12.18;6.32;;;17.80;99.90;;;;;;5094433;28;20090;-75
2023/06/10 06:19:17;;;;;;;13.00;6.22;;;17.90;99.90;;;;;;5094542;28;20094;-75
2023/06/10 06:21:43;;;;;;;11.95;6.13;;;17.90;99.90;;;;;;5096331;28;20101;-75
2023/06/10 06:24:09;;;;;;;10.93;6.30;;;17.90;99.90;;;;;;5095287;28;20056;-75
2023/06/10 06:26:35;;;;;;;11.38;6.38;;;17.70;99.90;;;;;;5094305;28;20395;-75
2023/06/10 06:29:00;;;;;;;15.57;7.20;;;18.00;99.90;;;;;;5095424;28;20109;-75
2023/06/10 06:31:26;;;;;;;13.60;6.80;;;17.90;99.90;;;;;;5095531;28;20075;-76
2023/06/10 06:33:51;;;;;;;10.45;6.38;;;18.20;99.90;;;;;;5095282;28;20113;-76
2023/06/10 06:36:17;;;;;;;10.30;6.03;;;18.40;99.90;;;;;;5086312;28;20048;-75
2023/06/10 06:38:42;;;;;;;10.63;6.47;;;18.50;99.90;;;;;;5074804;28;20454;-75
2023/06/10 06:41:08;;;;;;;13.63;6.90;;;18.60;99.90;;;;;;5074699;28;20040;-75
2023/06/10 06:43:34;;;;;;;10.57;6.43;;;18.70;99.90;;;;;;5074584;28;20047;-73
2023/06/10 06:46:00;;;;;;;11.68;6.47;;;18.70;99.90;;;;;;5074900;28;20123;-76
2023/06/10 06:48:26;;;;;;;11.30;6.07;;;18.70;99.90;;;;;;5074811;28;20036;-75
2023/06/10 06:50:51;;;;;;;10.15;5.93;;;18.40;99.90;;;;;;5084735;28;20082;-74
2023/06/10 06:53:17;;;;;;;9.30;5.40;;;18.70;99.90;;;;;;5093569;28;20131;-75
2023/06/10 06:55:42;;;;;;;12.07;5.82;;;18.80;99.90;;;;;;5094946;28;20114;-74
2023/06/10 06:58:08;;;;;;;10.63;6.10;;;19.00;99.90;;;;;;5093420;28;20044;-74
2023/06/10 07:00:34;;;;;;;8.90;6.00;;;18.80;99.90;;;;;;5094707;28;20040;-74
2023/06/10 07:03:00;;;;;;;10.27;6.03;;;19.10;99.90;;;;;;5093257;28;20093;-83
2023/06/10 07:05:28;;;;;;;8.07;5.75;;;18.90;99.90;;;;;;5093165;28;20055;-74
2023/06/10 07:07:55;;;;;;;11.13;5.32;;;18.90;99.90;;;;;;5094410;28;20048;-74
2023/06/10 07:10:25;;;;;;;11.13;6.10;;;19.30;99.90;;;;;;5094467;28;20098;-74
2023/06/10 07:12:51;;;;;;;12.55;6.85;;;19.40;99.90;;;;;;5094127;28;20373;-74
2023/06/10 07:15:16;;;;;;;9.45;6.13;;;19.00;99.90;;;;;;5094165;28;20058;-73
2023/06/10 07:17:43;;;;;;;14.38;6.88;;;19.30;99.90;;;;;;5092925;28;20126;-74
2023/06/10 07:20:09;;;;;;;10.73;7.35;;;19.40;99.90;;;;;;5092856;28;20398;-74
2023/06/10 07:22:35;;;;;;;12.07;6.07;;;18.90;99.90;;;;;;5092869;28;20054;-75
2023/06/10 07:25:01;;;;;;;10.98;6.40;;;19.10;99.90;;;;;;5092854;28;20060;-74
2023/06/10 07:27:26;;;;;;;11.25;6.40;;;19.30;99.90;;;;;;5094252;28;20131;-75
2023/06/10 07:29:52;;;;;;;12.00;5.30;;;19.60;99.90;;;;;;5093946;28;20087;-75
2023/06/10 07:32:20;;;;;;;13.38;6.68;;;19.70;99.90;;;;;;5092915;28;20051;-74
2023/06/10 07:34:46;;;;;;;13.75;6.30;;;19.70;99.90;;;;;;5093750;28;20131;-75
2023/06/10 07:37:11;;;;;;;10.02;5.75;;;19.90;99.90;;;;;;5092637;28;20123;-75
2023/06/10 07:39:37;;;;;;;11.88;7.75;;;20.00;99.90;;;;;;5092547;28;20123;-75
2023/06/10 07:42:03;;;;;;;12.63;7.60;;;19.60;99.90;;;;;;5093784;28;20096;-75
2023/06/10 07:44:28;;;;;;;12.70;7.22;;;19.60;99.90;;;;;;5093643;28;20050;-75
2023/06/10 07:46:54;;;;;;;12.05;7.28;;;19.60;99.90;;;;;;5093989;28;20040;-74
2023/06/10 07:49:20;;;;;;;11.70;6.85;;;19.60;99.90;;;;;;5092323;28;20055;-75
2023/06/10 07:51:45;;;;;;;10.20;7.20;;;19.90;99.90;;;;;;5092352;28;20086;-73
2023/06/10 07:54:12;;;;;;;11.15;7.00;;;19.70;99.90;;;;;;5092151;28;20055;-75
2023/06/10 07:56:38;;;;;;;11.75;7.65;;;19.60;99.90;;;;;;5093515;28;20475;-74
2023/06/10 07:59:03;;;;;;;13.02;7.40;;;19.70;99.90;;;;;;5093374;28;20048;-74
2023/06/10 08:01:30;;;;;;;11.68;6.40;;;19.70;99.90;;;;;;5093732;28;20104;-74
2023/06/10 08:03:55;;;;;;;9.18;5.90;;;20.00;99.90;;;;;;5091794;28;20055;-74
2023/06/10 08:06:21;;;;;;;13.20;7.18;;;20.10;99.90;;;;;;5092454;28;20052;-74
2023/06/10 08:08:47;;;;;;;10.68;6.75;;;20.00;99.90;;;;;;5092093;28;20040;-74
2023/06/10 08:11:13;;;;;;;15.38;6.40;;;20.10;99.90;;;;;;5093415;28;20036;-74
2023/06/10 08:13:39;;;;;;;11.80;6.28;;;20.40;99.90;;;;;;5091883;28;20076;-74
2023/06/10 08:16:05;;;;;;;10.27;6.07;;;20.50;99.90;;;;;;5093635;28;20067;-74
2023/06/10 08:18:31;;;;;;;14.90;6.10;;;20.10;99.90;;;;;;5093252;28;20490;-74
2023/06/10 08:20:57;;;;;;;10.20;5.78;;;20.40;99.90;;;;;;5091933;28;20143;-74
2023/06/10 08:23:24;;;;;;;11.00;5.80;;;20.50;99.90;;;;;;5093097;28;20087;-74
2023/06/10 08:25:53;;;;;;;10.07;5.78;;;20.60;99.90;;;;;;5092266;28;20076;-74
2023/06/10 08:28:18;;;;;;;13.30;6.57;;;20.90;99.90;;;;;;5091906;28;20039;-73
2023/06/10 08:30:45;;;;;;;10.40;5.53;;;20.70;99.90;;;;;;5093377;28;20093;-74
2023/06/10 08:33:10;;;;;;;9.80;5.25;;;20.60;99.90;;;;;;5091833;28;20489;-74
2023/06/10 08:35:36;;;;;;;8.93;5.50;;;20.60;99.90;;;;;;5092073;28;20101;-74
2023/06/10 08:38:01;;;;;;;11.15;5.43;;;20.60;99.90;;;;;;5091852;28;20044;-74
2023/06/10 08:40:27;;;;;;;10.07;5.45;;;20.60;99.90;;;;;;5093168;28;20071;-73
2023/06/10 08:43:17;;;;;;;7.25;4.90;;;20.90;99.90;;;;;;5092934;28;20147;-73
2023/06/10 08:45:45;;;;;;;13.32;6.18;;;20.60;99.90;;;;;;5092121;28;20104;-73
2023/06/10 08:48:12;;;;;;;10.02;5.80;;;20.80;99.90;;;;;;5093256;28;20048;-73
2023/06/10 08:50:38;;;;;;;10.57;5.55;;;20.90;99.90;;;;;;5091952;28;20119;-73
2023/06/10 08:53:07;;;;;;;14.55;5.85;;;21.00;99.90;;;;;;5092764;28;20128;-73
2023/06/10 08:55:37;;;;;;;13.38;6.03;;;20.80;99.90;;;;;;5092731;28;20555;-73
2023/06/10 08:58:04;;;;;;;10.40;5.60;;;21.30;99.90;;;;;;5093029;28;20048;-73
2023/06/10 09:00:31;;;;;;;8.68;5.53;;;21.00;99.90;;;;;;5093166;28;20085;-73
2023/06/10 09:02:57;;;;;;;10.63;5.40;;;21.10;99.90;;;;;;5092963;28;20040;-73
2023/06/10 09:05:23;;;;;;;12.15;5.53;;;21.30;99.90;;;;;;5093015;28;20127;-73
2023/06/10 09:07:52;;;;;;;10.57;7.05;;;21.40;99.90;;;;;;5092824;28;20048;-73
2023/06/10 09:10:18;;;;;;;12.27;6.05;;;21.20;99.90;;;;;;5091495;28;20044;-73
2023/06/10 09:12:44;;;;;;;10.07;6.80;;;21.40;99.90;;;;;;5092968;28;20043;-73
2023/06/10 09:15:11;;;;;;;11.45;6.47;;;21.40;99.90;;;;;;5092923;28;20047;-74
2023/06/10 09:17:38;;;;;;;10.48;5.25;;;21.50;99.90;;;;;;5094688;28;20040;-74
2023/06/10 09:20:04;;;;;;;12.48;6.90;;;21.80;99.90;;;;;;5096719;28;20055;-73
2023/06/10 09:22:30;;;;;;;10.50;5.72;;;21.30;99.90;;;;;;5096311;28;20060;-73
2023/06/10 09:25:07;;;;;;;10.02;5.47;;;21.70;99.90;;;;;;5096503;28;20059;-74
2023/06/10 09:27:32;;;;;;;12.18;6.20;;;21.50;99.90;;;;;;5094978;28;20097;-73
2023/06/10 09:29:58;;;;;;;10.70;5.43;;;21.70;99.90;;;;;;5096576;28;20044;-73
2023/06/10 09:32:24;;;;;;;11.00;6.25;;;21.70;99.90;;;;;;5096248;28;20123;-73
2023/06/10 09:34:50;;;;;;;8.35;4.82;;;21.40;99.90;;;;;;5094749;28;20044;-74
2023/06/10 09:37:25;;;;;;;10.02;6.00;;;21.80;99.90;;;;;;5095169;28;20040;-73
2023/06/10 09:40:05;;;;;;;10.35;5.28;;;21.50;99.90;;;;;;5094913;28;20044;-73
2023/06/10 09:42:35;;;;;;;10.25;6.03;;;21.50;99.90;;;;;;5095033;28;20142;-74
2023/06/10 09:45:03;;;;;;;10.55;6.82;;;21.80;99.90;;;;;;5095071;28;20047;-74
2023/06/10 09:47:28;;;;;;;13.23;6.43;;;21.40;99.90;;;;;;5095900;28;20044;-75
2023/06/10 09:49:54;;;;;;;11.05;7.05;;;21.30;99.90;;;;;;5094969;28;20097;-75
2023/06/10 09:52:29;;;;;;;12.77;6.30;;;21.10;99.90;;;;;;5094644;28;20556;-76
2023/06/10 09:55:00;;;;;;;11.30;6.35;;;21.20;99.90;;;;;;5094535;28;20047;-73
2023/06/10 09:57:30;;;;;;;10.02;6.43;;;21.50;99.90;;;;;;5094408;28;20043;-73
2023/06/10 09:59:55;;;;;;;11.40;6.18;;;21.70;99.90;;;;;;5094625;28;20054;-73
2023/06/10 10:02:21;;;;;;;12.88;6.90;;;21.80;99.90;;;;;;5095688;28;20048;-74
2023/06/10 10:04:47;;;;;;;15.30;8.23;;;21.60;99.90;;;;;;5095911;28;20043;-74
2023/06/10 10:07:13;;;;;;;10.77;7.00;;;21.40;99.90;;;;;;5095852;28;20047;-74
2023/06/10 10:09:40;;;;;;;11.35;6.75;;;21.70;99.90;;;;;;5095818;28;20043;-75
2023/06/10 10:12:16;;;;;;;13.55;6.97;;;21.80;99.90;;;;;;5094181;28;20051;-74
2023/06/10 10:14:47;;;;;;;11.20;7.03;;;22.20;99.90;;;;;;5095287;28;20051;-75
2023/06/10 10:17:15;;;;;;;11.18;6.55;;;22.10;99.90;;;;;;5094160;28;20123;-74
2023/06/10 10:19:50;;;;;;;14.60;7.43;;;21.80;99.90;;;;;;5094000;28;20402;-78
2023/06/10 10:22:28;;;;;;;10.98;7.40;;;22.00;99.90;;;;;;5093895;28;20113;-76
2023/06/10 10:24:57;;;;;;;12.50;7.90;;;21.90;99.90;;;;;;5095336;28;20040;-77
2023/06/10 10:27:30;;;;;;;13.15;8.80;;;22.00;99.90;;;;;;5094814;28;20525;-74
2023/06/10 10:29:58;;;;;;;13.25;8.02;;;21.80;99.90;;;;;;5095127;28;20514;-74
2023/06/10 10:32:34;;;;;;;12.73;7.80;;;21.50;99.90;;;;;;5095211;28;20048;-73
2023/06/10 10:35:16;;;;;;;12.52;8.18;;;21.40;99.90;;;;;;5094918;28;20131;-74
2023/06/10 10:37:42;;;;;;;11.70;7.65;;;21.30;99.90;;;;;;5095246;28;20122;-74
2023/06/10 10:40:09;;;;;;;11.88;8.43;;;21.30;99.90;;;;;;5095207;28;20132;-73
2023/06/10 10:42:36;;;;;;;12.90;8.05;;;21.40;99.90;;;;;;5095042;28;20062;-74
2023/06/10 10:45:02;;;;;;;11.40;7.55;;;21.30;99.90;;;;;;5093811;28;20052;-74
2023/06/10 10:47:30;;;;;;;14.63;7.18;;;21.50;99.90;;;;;;5095031;28;20048;-74
2023/06/10 10:49:59;;;;;;;12.13;8.13;;;21.60;99.90;;;;;;5093575;28;20096;-73
2023/06/10 10:52:25;;;;;;;11.18;7.97;;;21.90;99.90;;;;;;5094737;28;20051;-74
2023/06/10 10:54:53;;;;;;;17.20;8.07;;;21.60;99.90;;;;;;5094520;28;20509;-75
2023/06/10 10:57:23;;;;;;;11.55;6.22;;;21.70;99.90;;;;;;5093304;28;20048;-74
2023/06/10 10:59:49;;;;;;;13.85;7.70;;;22.10;99.90;;;;;;5094570;28;20047;-74
2023/06/10 11:02:31;;;;;;;13.98;8.35;;;22.30;99.90;;;;;;5094486;28;20376;-73
2023/06/10 11:04:57;;;;;;;18.42;9.02;;;22.40;99.90;;;;;;5094502;28;20570;-73
2023/06/10 11:07:25;;;;;;;15.15;8.60;;;21.90;99.90;;;;;;5094471;28;20553;-73
2023/06/10 11:10:02;;;;;;;14.73;8.65;;;21.70;99.90;;;;;;5094693;28;20060;-72
2023/06/10 11:12:45;;;;;;;18.67;9.25;;;21.50;99.90;;;;;;5094301;28;20380;-75
2023/06/10 11:15:11;;;;;;;13.93;7.55;;;21.60;99.90;;;;;;5092957;28;20052;-73
2023/06/10 11:17:36;;;;;;;17.17;7.95;;;21.30;99.90;;;;;;5094380;28;20081;-72
2023/06/10 11:20:02;;;;;;;12.75;7.57;;;21.40;99.90;;;;;;5092781;28;20500;-73
2023/06/10 11:22:29;;;;;;;19.42;8.70;;;21.70;99.90;;;;;;5094189;28;20048;-73
2023/06/10 11:24:59;;;;;;;14.30;7.75;;;21.40;99.90;;;;;;5093104;28;20052;-74
2023/06/10 11:27:24;;;;;;;15.60;9.25;;;21.40;99.90;;;;;;5093942;28;20071;-73
2023/06/10 11:30:20;;;;;;;19.75;8.73;;;21.30;99.90;;;;;;5094067;28;20480;-74
2023/06/10 11:32:51;;;;;;;13.82;8.98;;;21.30;99.90;;;;;;5094195;28;20051;-73
2023/06/10 11:35:19;;;;;;;20.83;9.40;;;21.00;99.90;;;;;;5094239;28;20044;-73
2023/06/10 11:37:45;;;;;;;14.60;8.73;;;20.90;99.90;;;;;;5092681;28;20407;-74
2023/06/10 11:40:11;;;;;;;18.48;8.57;;;20.60;99.90;;;;;;5093343;28;20051;-74
2023/06/10 11:42:42;;;;;;;20.52;9.45;;;20.50;99.90;;;;;;5092892;28;20559;-74
2023/06/10 11:45:08;;;;;;;19.95;8.52;;;20.40;99.90;;;;;;5092928;28;20059;-73
2023/06/10 11:47:34;;;;;;;13.10;9.00;;;20.40;99.90;;;;;;5093860;28;20530;-73
2023/06/10 11:49:59;;;;;;;16.20;8.15;;;20.10;99.90;;;;;;5093861;28;20065;-74
2023/06/10 11:52:33;;;;;;;18.17;8.77;;;20.10;99.90;;;;;;5093698;28;20483;-74
2023/06/10 11:54:59;;;;;;;16.27;7.55;;;19.90;99.90;;;;;;5093892;28;20052;-73
2023/06/10 11:57:24;;;;;;;16.40;7.18;;;20.00;99.90;;;;;;5093624;28;20152;-73
2023/06/10 11:59:50;;;;;;;17.90;7.45;;;20.30;99.90;;;;;;5092373;28;20050;-73
2023/06/10 12:02:17;;;;;;;14.88;7.72;;;20.30;99.90;;;;;;5093882;28;20081;-73
2023/06/10 12:04:42;;;;;;;15.32;7.03;;;20.60;99.90;;;;;;5093702;28;20044;-74
2023/06/10 12:07:08;;;;;;;17.30;8.43;;;20.90;99.90;;;;;;5092514;28;20552;-73
2023/06/10 12:09:34;;;;;;;20.45;7.90;;;20.60;99.90;;;;;;5092246;28;20047;-74
2023/06/10 12:12:05;;;;;;;19.13;8.23;;;20.80;99.90;;;;;;5092557;28;20126;-73
2023/06/10 12:15:01;;;;;;;21.60;7.25;;;20.80;99.90;;;;;;5093584;28;20040;-73
2023/06/10 12:17:33;;;;;;;16.38;6.95;;;20.70;99.90;;;;;;5092159;28;20081;-73
2023/06/10 12:20:01;;;;;;;15.52;6.20;;;20.90;99.90;;;;;;5093744;28;20044;-74
2023/06/10 12:22:27;;;;;;;13.45;5.32;;;20.80;99.90;;;;;;5093464;28;20092;-74
2023/06/10 12:25:01;;;;;;;14.90;5.20;;;20.70;99.90;;;;;;5093685;28;20044;-74
2023/06/10 12:27:29;;;;;;;14.27;4.95;;;20.50;99.90;;;;;;5092579;28;20048;-74
2023/06/10 12:30:00;;;;;;;13.55;5.38;;;20.50;99.90;;;;;;5093528;28;20047;-74
2023/06/10 12:32:42;;;;;;;17.42;4.70;;;20.60;99.90;;;;;;5092449;28;20051;-73
2023/06/10 12:35:10;;;;;;;20.58;5.10;;;20.90;99.90;;;;;;5092284;28;20075;-73
2023/06/10 12:37:39;;;;;;;12.80;4.22;;;20.60;99.90;;;;;;5092037;28;20040;-74